createdAt,value
2023-05-21T00:00:45.904Z,1.83
2023-05-21T00:03:16.332Z,2.20
2023-05-21T00:05:47.342Z,2.33
2023-05-21T00:08:15.625Z,2.20
2023-05-21T00:10:43.603Z,2.20
2023-05-21T00:13:11.694Z,2.10
2023-05-21T00:15:40.025Z,2.00
2023-05-21T00:18:08.084Z,2.00
2023-05-21T00:20:37.619Z,2.37
2023-05-21T00:23:05.685Z,1.95
2023-05-21T00:25:33.904Z,2.10
2023-05-21T00:28:02.348Z,2.00
2023-05-21T00:30:30.431Z,2.30
2023-05-21T00:33:02.948Z,2.60
2023-05-21T00:35:31.567Z,2.20
2023-05-21T00:38:01.881Z,2.40
2023-05-21T00:40:29.887Z,2.10
2023-05-21T00:42:58.320Z,2.80
2023-05-21T00:45:26.341Z,2.50
2023-05-21T00:47:55.710Z,1.80
2023-05-21T00:50:24.625Z,2.47
2023-05-21T00:52:53.420Z,2.33
2023-05-21T00:55:23.182Z,2.30
2023-05-21T00:57:51.623Z,2.30
2023-05-21T01:00:20.354Z,2.60
2023-05-21T01:02:50.749Z,2.33
2023-05-21T01:07:48.412Z,2.40
2023-05-21T01:10:16.597Z,2.35
2023-05-21T01:12:48.882Z,2.57
2023-05-21T01:15:17.571Z,2.37
2023-05-21T01:17:46.591Z,2.70
2023-05-21T01:20:18.294Z,2.47
2023-05-21T01:22:53.936Z,2.57
2023-05-21T01:25:22.230Z,2.50
2023-05-21T01:27:50.347Z,2.70
2023-05-21T01:30:20.182Z,2.27
2023-05-21T01:32:54.216Z,2.03
2023-05-21T01:35:27.015Z,2.67
2023-05-21T01:38:03.503Z,2.37
2023-05-21T01:40:38.390Z,2.67
2023-05-21T01:43:08.551Z,2.30
2023-05-21T01:45:39.431Z,2.50
2023-05-21T01:48:09.326Z,2.50
2023-05-21T01:50:39.581Z,2.83
2023-05-21T01:53:08.967Z,2.53
2023-05-21T01:55:39.711Z,2.73
2023-05-21T01:58:08.412Z,2.80
2023-05-21T02:00:37.623Z,2.90
2023-05-21T02:03:05.778Z,2.67
2023-05-21T02:05:33.966Z,2.70
2023-05-21T02:08:02.496Z,2.70
2023-05-21T02:10:31.861Z,2.47
2023-05-21T02:13:00.082Z,2.67
2023-05-21T02:15:28.399Z,2.00
2023-05-21T02:17:56.563Z,2.20
2023-05-21T02:20:24.635Z,2.13
2023-05-21T02:22:52.723Z,2.63
2023-05-21T02:25:20.882Z,2.00
2023-05-21T02:27:58.949Z,2.20
2023-05-21T02:30:26.997Z,2.50
2023-05-21T02:32:55.285Z,2.60
2023-05-21T02:35:23.427Z,2.30
2023-05-21T02:37:51.593Z,2.57
2023-05-21T02:40:19.774Z,2.70
2023-05-21T02:42:48.108Z,2.30
2023-05-21T02:45:17.519Z,2.50
2023-05-21T02:47:45.677Z,2.77
2023-05-21T02:50:15.264Z,2.53
2023-05-21T02:52:43.221Z,2.38
2023-05-21T02:55:14.242Z,2.97
2023-05-21T02:57:42.312Z,2.63
2023-05-21T03:00:11.756Z,2.87
2023-05-21T03:02:41.587Z,2.67
2023-05-21T03:05:09.976Z,2.97
2023-05-21T03:07:37.997Z,3.10
2023-05-21T03:10:07.176Z,2.60
2023-05-21T03:12:35.292Z,2.60
2023-05-21T03:15:03.495Z,2.37
2023-05-21T03:17:32.231Z,2.50
2023-05-21T03:20:01.892Z,2.40
2023-05-21T03:22:29.945Z,2.60
2023-05-21T03:25:01.811Z,2.63
2023-05-21T03:27:30.020Z,2.67
2023-05-21T03:29:59.553Z,2.57
2023-05-21T03:32:27.658Z,2.28
2023-05-21T03:34:55.889Z,2.60
2023-05-21T03:37:25.581Z,2.27
2023-05-21T03:39:53.549Z,2.20
2023-05-21T03:42:21.715Z,2.13
2023-05-21T03:44:49.669Z,2.23
2023-05-21T03:47:20.754Z,2.37
2023-05-21T03:49:52.293Z,2.00
2023-05-21T03:52:20.232Z,2.43
2023-05-21T03:54:49.720Z,2.27
2023-05-21T03:57:18.048Z,2.03
2023-05-21T03:59:46.240Z,2.10
2023-05-21T04:02:14.375Z,2.23
2023-05-21T04:04:43.553Z,2.07
2023-05-21T04:07:14.731Z,1.93
2023-05-21T04:09:43.045Z,1.97
2023-05-21T04:12:12.573Z,1.57
2023-05-21T04:14:42.894Z,2.55
2023-05-21T04:17:12.820Z,2.15
2023-05-21T04:19:41.051Z,2.20
2023-05-21T04:22:09.175Z,1.90
2023-05-21T04:24:38.241Z,2.50
2023-05-21T04:27:07.222Z,1.70
2023-05-21T04:29:37.690Z,2.30
2023-05-21T04:32:06.333Z,1.80
2023-05-21T04:34:35.064Z,2.10
2023-05-21T04:37:03.289Z,1.70
2023-05-21T04:39:31.850Z,1.90
2023-05-21T04:42:00.151Z,1.73
2023-05-21T04:44:28.159Z,1.70
2023-05-21T04:47:00.597Z,1.60
2023-05-21T04:49:28.829Z,1.83
2023-05-21T04:51:57.780Z,1.87
2023-05-21T04:54:26.118Z,1.63
2023-05-21T04:56:54.244Z,1.80
2023-05-21T04:59:22.922Z,1.83
2023-05-21T05:01:51.026Z,1.50
2023-05-21T05:04:20.622Z,1.33
2023-05-21T05:06:48.688Z,1.73
2023-05-21T05:09:16.850Z,1.57
2023-05-21T05:11:44.934Z,1.63
2023-05-21T05:14:12.927Z,1.40
2023-05-21T05:16:41.300Z,1.70
2023-05-21T05:19:09.395Z,1.47
2023-05-21T05:21:38.893Z,1.77
2023-05-21T05:24:07.693Z,1.35
2023-05-21T05:26:35.842Z,1.60
2023-05-21T05:29:03.887Z,1.13
2023-05-21T05:31:32.065Z,1.37
2023-05-21T05:34:00.177Z,1.40
2023-05-21T05:36:28.331Z,1.40
2023-05-21T05:38:57.740Z,1.40
2023-05-21T05:41:27.108Z,1.60
2023-05-21T05:43:55.246Z,1.37
2023-05-21T05:46:23.341Z,1.40
2023-05-21T05:48:51.435Z,1.47
2023-05-21T05:51:19.665Z,1.60
2023-05-21T05:53:47.854Z,1.40
2023-05-21T05:56:17.873Z,1.20
2023-05-21T05:58:45.907Z,1.70
2023-05-21T06:01:14.458Z,1.20
2023-05-21T06:03:42.757Z,1.20
2023-05-21T06:06:11.277Z,1.27
2023-05-21T06:08:40.628Z,1.27
2023-05-21T06:11:08.730Z,1.20
2023-05-21T06:13:38.419Z,1.20
2023-05-21T06:16:07.648Z,1.15
2023-05-21T06:18:35.913Z,1.40
2023-05-21T06:21:04.054Z,1.35
2023-05-21T06:23:32.713Z,1.00
2023-05-21T06:26:00.986Z,1.10
2023-05-21T06:28:28.994Z,1.20
2023-05-21T06:30:58.660Z,1.17
2023-05-21T06:33:27.567Z,1.10
2023-05-21T06:35:55.763Z,1.20
2023-05-21T06:38:23.993Z,1.10
2023-05-21T06:40:52.168Z,1.00
2023-05-21T06:43:21.513Z,1.33
2023-05-21T06:45:49.937Z,1.10
2023-05-21T06:48:19.476Z,0.93
2023-05-21T06:50:47.487Z,1.10
2023-05-21T06:53:16.587Z,1.40
2023-05-21T06:55:45.676Z,1.30
2023-05-21T06:58:13.609Z,1.23
2023-05-21T07:00:41.789Z,1.02
2023-05-21T07:03:09.989Z,1.10
2023-05-21T07:05:39.972Z,1.02
2023-05-21T07:08:09.088Z,1.10
2023-05-21T07:10:38.145Z,1.25
2023-05-21T07:13:06.206Z,1.20
2023-05-21T07:15:34.425Z,1.17
2023-05-21T07:18:02.679Z,1.20
2023-05-21T07:20:30.976Z,1.15
2023-05-21T07:23:00.620Z,1.05
2023-05-21T07:25:28.709Z,1.05
2023-05-21T07:27:56.688Z,1.10
2023-05-21T07:30:27.637Z,1.10
2023-05-21T07:32:55.891Z,1.20
2023-05-21T07:35:23.964Z,1.00
2023-05-21T07:37:51.964Z,0.95
2023-05-21T07:40:21.673Z,1.00
2023-05-21T07:42:49.574Z,1.30
2023-05-21T07:45:17.529Z,1.00
2023-05-21T07:47:46.408Z,1.30
2023-05-21T07:50:15.358Z,1.30
2023-05-21T07:52:43.455Z,1.33
2023-05-21T07:55:15.665Z,1.23
2023-05-21T07:57:45.524Z,1.30
2023-05-21T08:00:17.461Z,1.10
2023-05-21T08:02:45.685Z,1.08
2023-05-21T08:05:14.010Z,1.27
2023-05-21T08:07:42.410Z,1.20
2023-05-21T08:10:10.998Z,1.05
2023-05-21T08:12:39.023Z,1.40
2023-05-21T08:15:09.692Z,1.23
2023-05-21T08:17:37.687Z,1.20
2023-05-21T08:20:09.087Z,1.40
2023-05-21T08:22:37.245Z,1.23
2023-05-21T08:25:05.718Z,1.40
2023-05-21T08:27:33.814Z,1.20
2023-05-21T08:30:02.018Z,1.00
2023-05-21T08:32:31.559Z,1.10
2023-05-21T08:35:00.836Z,1.30
2023-05-21T08:37:29.008Z,1.23
2023-05-21T08:39:56.967Z,1.05
2023-05-21T08:42:37.049Z,1.38
2023-05-21T08:45:07.286Z,1.00
2023-05-21T08:47:37.969Z,1.20
2023-05-21T08:50:06.748Z,1.20
2023-05-21T08:52:34.829Z,0.93
2023-05-21T08:55:04.963Z,1.10
2023-05-21T09:00:01.881Z,1.00
2023-05-21T09:02:34.443Z,1.10
2023-05-21T09:05:05.717Z,1.40
2023-05-21T09:07:40.960Z,1.20
2023-05-21T09:10:13.289Z,1.27
2023-05-21T09:12:41.798Z,1.40
2023-05-21T09:15:10.877Z,1.30
2023-05-21T09:17:39.032Z,1.00
2023-05-21T09:20:12.532Z,1.25
2023-05-21T09:22:45.147Z,1.30
2023-05-21T09:25:14.563Z,1.33
2023-05-21T09:27:42.620Z,1.45
2023-05-21T09:30:15.557Z,1.10
2023-05-21T09:32:46.228Z,1.20
2023-05-21T09:35:16.447Z,1.25
2023-05-21T09:37:45.332Z,1.10
2023-05-21T09:40:15.460Z,1.10
2023-05-21T09:45:19.566Z,1.30
2023-05-21T09:47:49.063Z,1.30
2023-05-21T09:50:24.765Z,1.33
2023-05-21T09:52:54.026Z,1.55
2023-05-21T09:55:24.904Z,1.10
2023-05-21T09:57:53.449Z,1.20
2023-05-21T10:00:22.896Z,1.30
2023-05-21T10:02:54.570Z,1.40
2023-05-21T10:05:28.302Z,1.38
2023-05-21T10:08:01.149Z,1.30
2023-05-21T10:10:30.976Z,1.40
2023-05-21T10:13:01.824Z,1.35
2023-05-21T10:15:33.640Z,1.40
2023-05-21T10:18:04.807Z,1.35
2023-05-21T10:20:34.774Z,1.20
2023-05-21T10:25:32.778Z,1.33
2023-05-21T10:28:03.939Z,1.13
2023-05-21T10:30:33.076Z,1.33
2023-05-21T10:33:03.163Z,1.20
2023-05-21T10:38:03.352Z,1.25
2023-05-21T10:40:31.887Z,1.30
2023-05-21T10:43:26.532Z,1.30
2023-05-21T10:46:17.727Z,1.38
2023-05-21T10:49:07.721Z,1.10
2023-05-21T10:51:46.409Z,1.48
2023-05-21T10:54:40.159Z,1.55
2023-05-21T10:57:15.886Z,1.10
2023-05-21T10:59:45.075Z,1.40
2023-05-21T11:02:16.291Z,1.30
2023-05-21T11:04:49.197Z,1.20
2023-05-21T11:07:24.494Z,1.20
2023-05-21T11:09:56.315Z,1.60
2023-05-21T11:12:24.346Z,1.42
2023-05-21T11:14:58.418Z,1.38
2023-05-21T11:17:40.750Z,1.30
2023-05-21T11:20:11.947Z,1.55
2023-05-21T11:22:40.087Z,1.50
2023-05-21T11:25:10.116Z,1.42
2023-05-21T11:27:39.279Z,1.60
2023-05-21T11:30:08.749Z,1.60
2023-05-21T11:32:41.127Z,1.67
2023-05-21T11:35:10.236Z,1.33
2023-05-21T11:37:41.953Z,1.63
2023-05-21T11:40:27.214Z,1.70
2023-05-21T11:42:56.420Z,1.50
2023-05-21T11:45:29.462Z,1.20
2023-05-21T11:47:59.190Z,1.63
2023-05-21T11:50:27.467Z,1.20
2023-05-21T11:52:56.070Z,1.40
2023-05-21T11:55:27.663Z,1.20
2023-05-21T11:57:56.541Z,1.55
2023-05-21T12:00:24.637Z,1.27
2023-05-21T12:02:55.935Z,1.40
2023-05-21T12:05:27.168Z,1.75
2023-05-21T12:07:57.648Z,1.60
2023-05-21T12:10:27.001Z,1.58
2023-05-21T12:12:57.251Z,1.60
2023-05-21T12:15:27.552Z,1.50
2023-05-21T12:17:56.877Z,1.45
2023-05-21T12:20:27.210Z,1.83
2023-05-21T12:25:23.396Z,1.48
2023-05-21T12:27:58.064Z,1.50
2023-05-21T12:30:26.817Z,1.50
2023-05-21T12:32:56.849Z,1.33
2023-05-21T12:35:25.111Z,1.80
2023-05-21T12:37:56.035Z,1.60
2023-05-21T12:40:37.216Z,1.50
2023-05-21T12:43:07.319Z,1.50
2023-05-21T12:45:36.757Z,1.60
2023-05-21T12:48:07.526Z,1.42
2023-05-21T12:50:36.460Z,1.30
2023-05-21T12:53:04.600Z,1.40
2023-05-21T12:55:33.080Z,1.48
2023-05-21T12:58:08.799Z,1.45
2023-05-21T13:00:38.257Z,1.30
2023-05-21T13:03:07.489Z,1.48
2023-05-21T13:05:36.202Z,1.30
2023-05-21T13:08:04.548Z,1.67
2023-05-21T13:10:32.692Z,1.55
2023-05-21T13:13:03.101Z,1.40
2023-05-21T13:15:33.273Z,1.50
2023-05-21T13:18:01.869Z,1.58
2023-05-21T13:20:30.186Z,1.70
2023-05-21T13:22:58.615Z,1.40
2023-05-21T13:25:29.241Z,1.30
2023-05-21T13:27:58.418Z,1.48
2023-05-21T13:30:26.598Z,1.40
2023-05-21T13:32:56.451Z,1.33
2023-05-21T13:35:24.653Z,1.48
2023-05-21T13:37:55.099Z,1.38
2023-05-21T13:40:23.830Z,1.30
2023-05-21T13:42:51.815Z,1.40
2023-05-21T13:45:21.551Z,1.70
2023-05-21T13:47:49.645Z,1.50
2023-05-21T13:50:19.158Z,1.60
2023-05-21T13:52:47.498Z,1.50
2023-05-21T13:55:16.870Z,1.73
2023-05-21T13:57:45.792Z,1.50
2023-05-21T14:00:16.220Z,1.38
2023-05-21T14:02:45.122Z,1.88
2023-05-21T14:05:13.990Z,1.73
2023-05-21T14:07:43.577Z,1.45
2023-05-21T14:10:12.369Z,1.60
2023-05-21T14:12:40.874Z,1.60
2023-05-21T14:15:10.234Z,1.67
2023-05-21T14:17:40.246Z,1.42
2023-05-21T14:20:09.813Z,1.38
2023-05-21T14:22:37.937Z,1.40
2023-05-21T14:25:08.858Z,1.80
2023-05-21T14:27:38.652Z,1.67
2023-05-21T14:30:07.690Z,1.48
2023-05-21T14:32:37.179Z,1.92
2023-05-21T14:35:06.315Z,1.33
2023-05-21T14:37:34.354Z,1.48
2023-05-21T14:40:02.431Z,1.90
2023-05-21T14:42:32.187Z,2.20
2023-05-21T14:45:07.417Z,1.80
2023-05-21T14:47:46.116Z,1.52
2023-05-21T14:50:14.349Z,1.20
2023-05-21T14:52:43.235Z,1.30
2023-05-21T14:55:12.453Z,1.70
2023-05-21T14:57:41.833Z,1.37
2023-05-21T15:00:11.658Z,2.08
2023-05-21T15:02:40.916Z,1.58
2023-05-21T15:05:12.254Z,1.25
2023-05-21T15:07:40.373Z,1.50
2023-05-21T15:10:09.935Z,1.30
2023-05-21T15:12:38.041Z,1.40
2023-05-21T15:15:08.617Z,1.40
2023-05-21T15:17:37.205Z,1.40
2023-05-21T15:20:06.225Z,1.30
2023-05-21T15:22:34.725Z,1.25
2023-05-21T15:25:03.682Z,1.30
2023-05-21T15:27:31.796Z,1.60
2023-05-21T15:30:00.239Z,1.48
2023-05-21T15:32:29.809Z,1.27
2023-05-21T15:34:58.183Z,1.52
2023-05-21T15:37:26.626Z,1.50
2023-05-21T15:39:54.818Z,1.60
2023-05-21T15:42:22.834Z,1.73
2023-05-21T15:44:50.786Z,1.50
2023-05-21T15:47:19.268Z,1.67
2023-05-21T15:49:48.770Z,1.50
2023-05-21T15:52:17.050Z,1.85
2023-05-21T15:54:45.123Z,1.42
2023-05-21T15:57:13.308Z,1.63
2023-05-21T15:59:41.440Z,1.50
2023-05-21T16:02:10.570Z,1.70
2023-05-21T16:04:38.681Z,1.60
2023-05-21T16:07:08.133Z,1.30
2023-05-21T16:09:37.729Z,1.73
2023-05-21T16:12:06.292Z,1.70
2023-05-21T16:14:36.754Z,1.55
2023-05-21T16:17:04.981Z,1.50
2023-05-21T16:19:33.093Z,1.30
2023-05-21T16:22:01.657Z,1.45
2023-05-21T16:24:31.165Z,1.30
2023-05-21T16:26:59.369Z,1.70
2023-05-21T16:29:27.424Z,1.60
2023-05-21T16:31:55.633Z,1.88
2023-05-21T16:34:23.698Z,1.70
2023-05-21T16:36:52.276Z,1.38
2023-05-21T16:39:22.921Z,1.83
2023-05-21T16:41:54.008Z,1.75
2023-05-21T16:44:22.039Z,1.40
2023-05-21T16:46:52.513Z,1.60
2023-05-21T16:49:20.791Z,1.38
2023-05-21T16:51:48.763Z,1.60
2023-05-21T16:54:16.964Z,1.83
2023-05-21T16:56:45.079Z,1.30
2023-05-21T16:59:14.372Z,1.25
2023-05-21T17:01:43.874Z,1.50
2023-05-21T17:04:12.258Z,1.50
2023-05-21T17:06:40.165Z,1.80
2023-05-21T17:09:08.216Z,1.60
2023-05-21T17:11:36.307Z,1.60
2023-05-21T17:14:04.268Z,1.90
2023-05-21T17:16:33.884Z,1.67
2023-05-21T17:19:02.135Z,1.70
2023-05-21T17:21:30.198Z,1.77
2023-05-21T17:23:58.280Z,1.60
2023-05-21T17:26:26.549Z,1.90
2023-05-21T17:28:54.629Z,1.70
2023-05-21T17:31:23.180Z,1.38
2023-05-21T17:33:52.674Z,1.45
2023-05-21T17:36:23.376Z,1.50
2023-05-21T17:38:51.897Z,1.50
2023-05-21T17:41:19.955Z,1.52
2023-05-21T17:43:47.911Z,1.77
2023-05-21T17:46:18.080Z,1.40
2023-05-21T17:51:15.558Z,1.40
2023-05-21T17:53:43.752Z,1.20
2023-05-21T17:56:12.000Z,1.60
2023-05-21T17:58:39.904Z,1.60
2023-05-21T18:01:08.259Z,1.50
2023-05-21T18:03:36.571Z,1.60
2023-05-21T18:06:05.065Z,1.42
2023-05-21T18:08:34.486Z,1.58
2023-05-21T18:11:02.707Z,1.50
2023-05-21T18:13:30.941Z,1.45
2023-05-21T18:15:59.979Z,1.60
2023-05-21T18:18:27.978Z,1.40
2023-05-21T18:20:55.923Z,1.67
2023-05-21T18:23:23.945Z,1.52
2023-05-21T18:25:53.351Z,1.50
2023-05-21T18:28:21.613Z,1.55
2023-05-21T18:30:49.667Z,1.50
2023-05-21T18:33:18.003Z,1.50
2023-05-21T18:35:45.945Z,1.27
2023-05-21T18:38:14.330Z,1.58
2023-05-21T18:40:42.596Z,1.30
2023-05-21T18:43:11.995Z,1.55
2023-05-21T18:45:40.051Z,1.40
2023-05-21T18:48:08.459Z,1.60
2023-05-21T18:50:37.286Z,1.55
2023-05-21T18:53:06.357Z,1.40
2023-05-21T18:55:35.629Z,1.80
2023-05-21T18:58:03.666Z,1.58
2023-05-21T19:00:34.277Z,1.40
2023-05-21T19:03:02.509Z,1.65
2023-05-21T19:05:30.654Z,1.70
2023-05-21T19:07:59.512Z,1.63
2023-05-21T19:10:27.764Z,1.70
2023-05-21T19:12:55.821Z,1.50
2023-05-21T19:15:23.960Z,1.52
2023-05-21T19:17:53.473Z,1.83
2023-05-21T19:20:26.545Z,1.88
2023-05-21T19:22:55.398Z,1.77
2023-05-21T19:25:23.535Z,1.50
2023-05-21T19:27:52.946Z,1.63
2023-05-21T19:30:20.982Z,1.65
2023-05-21T19:32:49.118Z,1.60
2023-05-21T19:35:18.856Z,1.60
2023-05-21T19:37:46.959Z,1.35
2023-05-21T19:40:17.622Z,1.42
2023-05-21T19:42:45.944Z,1.63
2023-05-21T19:45:15.580Z,1.90
2023-05-21T19:47:44.524Z,1.80
2023-05-21T19:50:12.882Z,1.63
2023-05-21T19:52:42.329Z,1.65
2023-05-21T19:55:10.871Z,1.80
2023-05-21T19:57:39.901Z,1.73
2023-05-21T20:00:10.510Z,1.60
2023-05-21T20:02:38.591Z,1.60
2023-05-21T20:05:07.649Z,1.80
2023-05-21T20:07:35.691Z,1.97
2023-05-21T20:10:06.534Z,2.00
2023-05-21T20:12:34.832Z,1.70
2023-05-21T20:15:06.978Z,2.10
2023-05-21T20:17:36.209Z,1.70
2023-05-21T20:20:11.238Z,1.83
2023-05-21T20:22:41.141Z,1.90
2023-05-21T20:25:11.030Z,1.98
2023-05-21T20:27:39.921Z,1.65
2023-05-21T20:30:09.507Z,2.10
2023-05-21T20:32:38.197Z,2.42
2023-05-21T20:35:08.959Z,1.87
2023-05-21T20:37:37.011Z,1.80
2023-05-21T20:40:07.071Z,2.00
2023-05-21T20:42:36.770Z,2.15
2023-05-21T20:45:05.325Z,1.83
2023-05-21T20:47:33.981Z,2.20
2023-05-21T20:50:02.895Z,1.90
2023-05-21T20:52:31.003Z,2.00
2023-05-21T20:55:00.148Z,2.20
2023-05-21T20:57:28.550Z,2.20
2023-05-21T20:59:57.999Z,2.00
2023-05-21T21:02:27.051Z,2.03
2023-05-21T21:04:56.326Z,1.80
2023-05-21T21:07:24.426Z,2.20
2023-05-21T21:09:52.500Z,2.07
2023-05-21T21:14:51.998Z,2.00
2023-05-21T21:17:21.729Z,2.00
2023-05-21T21:19:49.836Z,1.90
2023-05-21T21:22:18.688Z,2.23
2023-05-21T21:24:46.763Z,2.03
2023-05-21T21:27:14.722Z,2.13
2023-05-21T21:29:42.765Z,2.43
2023-05-21T21:32:10.948Z,2.10
2023-05-21T21:34:40.370Z,2.20
2023-05-21T21:37:08.531Z,2.00
2023-05-21T21:39:36.585Z,2.33
2023-05-21T21:42:04.883Z,2.50
2023-05-21T21:44:32.960Z,2.53
2023-05-21T21:47:01.037Z,2.10
2023-05-21T21:49:29.019Z,2.40
2023-05-21T21:51:59.609Z,2.10
2023-05-21T21:54:28.293Z,2.50
2023-05-21T21:56:56.519Z,2.30
2023-05-21T21:59:24.582Z,2.93
2023-05-21T22:01:52.709Z,2.23
2023-05-21T22:04:20.807Z,2.47
2023-05-21T22:06:48.932Z,2.40
2023-05-21T22:09:18.427Z,2.30
2023-05-21T22:11:46.652Z,2.42
2023-05-21T22:14:14.766Z,2.30
2023-05-21T22:16:43.298Z,2.40
2023-05-21T22:19:12.941Z,2.30
2023-05-21T22:21:42.102Z,2.63
2023-05-21T22:24:20.631Z,2.60
2023-05-21T22:26:59.850Z,2.47
2023-05-21T22:29:27.953Z,2.47
2023-05-21T22:31:56.179Z,2.53
2023-05-21T22:34:25.538Z,2.47
2023-05-21T22:36:53.989Z,2.37
2023-05-21T22:39:22.049Z,2.60
2023-05-21T22:41:50.255Z,2.50
2023-05-21T22:44:20.443Z,2.33
2023-05-21T22:46:49.534Z,2.50
2023-05-21T22:49:17.691Z,2.70
2023-05-21T22:51:46.505Z,2.73
2023-05-21T22:54:14.583Z,2.33
2023-05-21T22:56:43.331Z,2.83
2023-05-21T22:59:11.334Z,2.90
2023-05-21T23:01:40.934Z,2.23
2023-05-21T23:04:09.201Z,2.50
2023-05-21T23:06:37.206Z,2.63
2023-05-21T23:09:05.297Z,2.53
2023-05-21T23:11:33.528Z,2.60
2023-05-21T23:14:01.618Z,2.63
2023-05-21T23:16:30.909Z,2.87
2023-05-21T23:19:01.357Z,2.80
2023-05-21T23:23:57.432Z,2.70
2023-05-21T23:26:26.106Z,2.43
2023-05-21T23:28:54.061Z,2.50
2023-05-21T23:31:22.300Z,2.50
2023-05-21T23:33:51.878Z,2.70
2023-05-21T23:36:21.425Z,3.30
2023-05-21T23:38:49.515Z,2.55
2023-05-21T23:41:17.701Z,2.67
2023-05-21T23:43:45.766Z,2.70
2023-05-21T23:46:13.807Z,2.67
2023-05-21T23:48:42.077Z,2.70
2023-05-21T23:51:10.080Z,2.53
2023-05-21T23:53:39.552Z,2.80
2023-05-21T23:56:08.213Z,3.00
2023-05-21T23:58:36.146Z,3.10
